Time;durP1;ratioP1;P1;durP2;ratioP2;P2;SDS_P1;SDS_P2;PMS_P1;PMS_P2;Temp;Humidity;BMP_temperature;BMP_pressure;BME280_temperature;BME280_humidity;BME280_pressure;Samples;Min_cycle;Max_cycle;Signal;HPM_P1;HPM_P2
2022/08/17 00:01:49;;;;;;;2.10;2.00;;;;;;;20.33;63.19;96450.00;10461142;28;20052;-59
2022/08/17 00:07:09;;;;;;;1.92;1.83;;;;;;;20.33;63.08;96446.50;10470960;28;20034;-59
2022/08/17 00:12:28;;;;;;;1.90;1.73;;;;;;;20.33;63.06;96449.22;10462810;28;20053;-59
2022/08/17 00:17:49;;;;;;;2.15;2.00;;;;;;;20.32;63.10;96444.91;10456450;28;20091;-59
2022/08/17 00:23:12;;;;;;;1.77;1.67;;;;;;;20.33;63.03;96447.28;10453167;28;20389;-60
2022/08/17 00:28:31;;;;;;;2.15;2.00;;;;;;;20.32;63.04;96439.50;10458261;28;20516;-60
2022/08/17 00:33:51;;;;;;;2.35;2.08;;;;;;;20.32;63.10;96444.91;10468019;28;20048;-59
2022/08/17 00:39:10;;;;;;;2.30;2.10;;;;;;;20.32;63.00;96440.28;10443311;28;20444;-59
2022/08/17 00:44:30;;;;;;;2.20;1.98;;;;;;;20.33;63.01;96435.69;10475903;28;20037;-59
2022/08/17 00:49:49;;;;;;;2.47;2.28;;;;;;;20.32;62.97;96436.78;10481912;28;20053;-59
2022/08/17 00:55:09;;;;;;;2.42;2.22;;;;;;;20.32;62.97;96426.75;10486708;28;20382;-60
2022/08/17 01:00:33;;;;;;;2.42;2.20;;;;;;;20.31;62.98;96427.91;10455487;28;20055;-59
2022/08/17 01:05:56;;;;;;;2.47;2.28;;;;;;;20.32;63.01;96429.47;10468741;28;20412;-60
2022/08/17 01:11:16;;;;;;;2.15;1.95;;;;;;;20.32;62.84;96432.16;10455794;28;20060;-59
2022/08/17 01:16:36;;;;;;;2.40;2.20;;;;;;;20.32;62.90;96428.69;10463701;28;20053;-59
2022/08/17 01:22:06;;;;;;;2.17;2.08;;;;;;;20.30;62.96;96431.72;10473540;28;20531;-59
2022/08/17 01:27:26;;;;;;;2.50;2.20;;;;;;;20.32;62.89;96431.38;10470792;28;20492;-59
2022/08/17 01:32:46;;;;;;;2.58;2.38;;;;;;;20.31;62.84;96436.00;10480101;28;20044;-59
2022/08/17 01:38:08;;;;;;;2.33;2.13;;;;;;;20.32;62.81;96434.88;10459725;28;20071;-60
2022/08/17 01:43:34;;;;;;;2.50;2.30;;;;;;;20.31;62.70;96436.00;10459997;28;20172;-58
2022/08/17 01:48:55;;;;;;;2.50;2.30;;;;;;;20.32;62.75;96445.69;10454182;28;20052;-58
2022/08/17 01:54:16;;;;;;;2.33;2.13;;;;;;;20.32;62.66;96437.59;10483482;28;20466;-61
2022/08/17 01:59:36;;;;;;;2.65;2.28;;;;;;;20.32;62.73;96442.22;10449597;28;20053;-59
2022/08/17 02:04:55;;;;;;;2.40;2.20;;;;;;;20.32;62.66;96451.09;10478554;28;20067;-60
2022/08/17 02:10:15;;;;;;;2.55;2.35;;;;;;;20.30;62.68;96441.75;10500189;28;20049;-59
2022/08/17 02:15:34;;;;;;;2.30;2.10;;;;;;;20.31;62.62;96443.34;10499881;28;20048;-59
2022/08/17 02:20:54;;;;;;;2.50;2.30;;;;;;;20.32;62.60;96447.63;10510501;28;20102;-59
2022/08/17 02:26:14;;;;;;;2.50;2.30;;;;;;;20.31;62.70;96444.13;10466071;28;20099;-59
2022/08/17 02:31:34;;;;;;;2.50;2.30;;;;;;;20.31;62.59;96440.66;10467560;28;20048;-59
2022/08/17 02:36:53;;;;;;;2.55;2.30;;;;;;;20.32;62.58;96447.63;10462664;28;20068;-59
2022/08/17 02:42:14;;;;;;;2.40;2.20;;;;;;;20.31;62.50;96451.47;10465195;28;20052;-59
2022/08/17 02:47:33;;;;;;;2.42;2.20;;;;;;;20.31;62.64;96441.44;10460212;28;20064;-59
2022/08/17 02:52:53;;;;;;;2.50;2.30;;;;;;;20.31;62.42;96449.53;10476305;28;20748;-59
2022/08/17 02:58:13;;;;;;;2.55;2.35;;;;;;;20.31;62.36;96443.34;10459975;28;20075;-60
2022/08/17 03:03:33;;;;;;;2.35;2.15;;;;;;;20.31;62.42;96437.94;10460882;28;20106;-59
2022/08/17 03:08:53;;;;;;;2.53;2.33;;;;;;;20.32;62.47;96440.28;10464512;28;20053;-59
2022/08/17 03:14:12;;;;;;;2.40;2.20;;;;;;;20.31;62.42;96430.59;10459182;28;20060;-59
2022/08/17 03:19:31;;;;;;;2.13;2.00;;;;;;;20.30;62.37;96439.84;10474304;28;20037;-59
2022/08/17 03:24:51;;;;;;;2.60;2.40;;;;;;;20.30;62.53;96437.13;10485163;28;20060;-59
2022/08/17 03:30:12;;;;;;;2.70;2.50;;;;;;;20.31;62.34;96438.72;10475875;28;20527;-60
2022/08/17 03:35:35;;;;;;;2.28;2.17;;;;;;;20.31;62.34;96433.31;10497601;28;20125;-59
2022/08/17 03:40:54;;;;;;;2.42;2.22;;;;;;;20.30;62.30;96437.13;10498234;28;20044;-59
2022/08/17 03:57:31;;;;;;;2.38;2.17;;;;;;;20.29;62.31;96435.56;10493277;28;20043;-59
2022/08/17 04:02:50;;;;;;;2.50;2.30;;;;;;;20.30;62.19;96426.31;10507624;28;20102;-60
2022/08/17 04:08:10;;;;;;;2.38;2.10;;;;;;;20.29;62.23;96422.03;10472823;28;20618;-60
2022/08/17 04:13:29;;;;;;;2.45;2.25;;;;;;;20.29;62.10;96419.34;10495942;28;20102;-59
2022/08/17 04:18:49;;;;;;;2.50;2.30;;;;;;;20.29;62.12;96419.34;10508389;28;20557;-59
2022/08/17 04:24:08;;;;;;;2.95;2.42;;;;;;;20.31;62.12;96427.13;10493169;28;20469;-59
2022/08/17 04:29:28;;;;;;;2.50;2.20;;;;;;;20.30;62.10;96430.94;10494079;28;20052;-59
2022/08/17 04:34:47;;;;;;;2.88;2.60;;;;;;;20.30;62.05;96437.13;10499946;28;20095;-60
2022/08/17 04:45:51;;;;;;;3.22;2.20;;;;;;;20.30;62.11;96447.16;10478124;28;20048;-59
2022/08/17 04:51:23;;;;;;;2.60;2.40;;;;;;;20.30;62.08;96456.06;10495294;28;20048;-60
2022/08/17 04:56:43;;;;;;;2.50;2.30;;;;;;;20.29;61.93;96454.50;10495298;28;20135;-59
2022/08/17 05:02:03;;;;;;;2.83;2.55;;;;;;;20.30;62.05;96455.28;10492127;28;20047;-59
2022/08/17 05:07:23;;;;;;;4.10;2.40;;;;;;;20.31;61.99;96468.47;10481332;28;20049;-59
2022/08/17 05:12:42;;;;;;;3.10;2.60;;;;;;;20.30;62.03;96466.88;10455465;28;20052;-59
2022/08/17 05:18:02;;;;;;;2.70;2.25;;;;;;;20.32;61.96;96471.97;10482316;28;20057;-59
2022/08/17 05:23:24;;;;;;;2.50;2.30;;;;;;;20.32;62.23;96472.75;10452073;28;20053;-60
2022/08/17 05:28:44;;;;;;;2.53;2.33;;;;;;;20.32;62.05;96478.16;10476256;28;20484;-59
2022/08/17 05:34:03;;;;;;;2.70;2.50;;;;;;;20.32;62.10;96475.44;10463739;28;20072;-60
2022/08/17 05:39:22;;;;;;;2.92;2.40;;;;;;;20.32;62.08;96482.78;10477402;28;20471;-59
2022/08/17 05:44:42;;;;;;;2.88;2.67;;;;;;;20.32;62.13;96480.88;10475961;28;20362;-59
2022/08/17 05:50:01;;;;;;;2.60;2.40;;;;;;;20.33;62.02;96484.38;10466570;28;20048;-59
2022/08/17 05:55:24;;;;;;;2.90;2.70;;;;;;;20.33;62.03;96482.47;10448378;28;20106;-59
2022/08/17 06:00:49;;;;;;;2.50;2.30;;;;;;;20.33;62.11;96478.97;10480935;28;20047;-59
2022/08/17 06:06:43;;;;;;;2.78;2.58;;;;;;;20.33;62.01;96478.97;10468031;28;20041;-59
2022/08/17 06:12:31;;;;;;;2.40;2.20;;;;;;;20.34;62.04;96488.66;10474736;28;20550;-59
2022/08/17 06:17:52;;;;;;;;;;;;;;;20.34;62.12;96483.25;10487737;28;20056;-60
2022/08/17 06:23:22;;;;;;;2.50;2.30;;;;;;;20.33;62.19;96490.56;10477347;28;19928;-59
2022/08/17 06:29:05;;;;;;;2.50;2.30;;;;;;;20.34;62.08;96497.53;10472101;28;20443;-59
2022/08/17 06:34:25;;;;;;;2.55;2.35;;;;;;;20.35;62.25;96498.34;10452582;28;20419;-59
2022/08/17 06:40:22;;;;;;;2.80;2.60;;;;;;;20.35;62.17;96492.94;10460273;28;20053;-59
2022/08/17 06:45:48;;;;;;;2.60;2.40;;;;;;;20.34;62.24;96489.44;10452187;28;20045;-59
2022/08/17 06:51:21;;;;;;;2.38;2.17;;;;;;;20.35;62.25;96491.03;10464167;28;20115;-60
2022/08/17 06:56:44;;;;;;;3.58;2.60;;;;;;;20.37;62.27;96484.50;10449005;28;20057;-60
2022/08/17 07:02:06;;;;;;;2.65;2.45;;;;;;;20.37;62.27;96500.72;10445002;28;20040;-59
2022/08/17 07:13:19;;;;;;;2.78;2.50;;;;;;;20.36;62.27;96497.22;10475520;28;20049;-59
2022/08/17 07:18:38;;;;;;;2.58;2.38;;;;;;;20.37;62.32;96501.50;10462058;28;20075;-59
2022/08/17 07:24:34;;;;;;;2.67;2.47;;;;;;;20.36;62.40;96494.50;10482836;28;20056;-59
2022/08/17 07:29:56;;;;;;;3.45;2.40;;;;;;;20.37;62.33;96496.09;10475641;28;20060;-59
2022/08/17 07:35:20;;;;;;;2.42;2.22;;;;;;;20.38;62.29;96508.50;10489411;28;20099;-59
2022/08/17 07:40:40;;;;;;;2.58;2.38;;;;;;;20.38;62.41;96507.72;10471466;28;20111;-60
2022/08/17 07:52:22;;;;;;;2.53;2.33;;;;;;;20.38;62.37;96508.50;10446001;28;20055;-59
2022/08/17 07:57:41;;;;;;;2.30;2.10;;;;;;;20.39;62.47;96509.31;10458744;28;20055;-59
2022/08/17 08:03:22;;;;;;;2.88;2.45;;;;;;;20.40;62.47;96513.56;10475239;28;20382;-59
2022/08/17 08:08:43;;;;;;;2.50;2.30;;;;;;;20.40;62.41;96508.16;10458833;28;20056;-59
2022/08/17 08:14:29;;;;;;;2.50;2.30;;;;;;;20.40;62.53;96505.44;10468131;28;20436;-59
2022/08/17 08:19:48;;;;;;;2.60;2.13;;;;;;;20.42;62.46;96503.19;10474363;28;20055;-60
2022/08/17 08:25:24;;;;;;;2.50;2.30;;;;;;;20.41;62.55;96504.34;10462331;28;20061;-60
2022/08/17 08:30:47;;;;;;;2.40;2.20;;;;;;;20.41;62.63;96507.84;10456319;28;20051;-59
2022/08/17 08:36:20;;;;;;;2.60;2.40;;;;;;;20.41;62.52;96512.47;10455389;28;20098;-59
2022/08/17 08:41:58;;;;;;;2.45;2.25;;;;;;;20.42;62.54;96508.63;10482682;28;20041;-59
2022/08/17 08:47:25;;;;;;;2.85;2.50;;;;;;;20.42;62.57;96512.09;10463269;28;20041;-59
2022/08/17 08:53:07;;;;;;;2.30;2.10;;;;;;;20.42;62.63;96519.44;10481329;28;20465;-59
2022/08/17 08:58:36;;;;;;;2.42;2.20;;;;;;;20.42;62.64;96514.81;10459498;28;20492;-59
2022/08/17 09:04:17;;;;;;;2.58;2.38;;;;;;;20.43;62.78;96523.72;10472564;28;20408;-60
2022/08/17 09:09:40;;;;;;;2.20;2.10;;;;;;;20.44;62.63;96522.59;10457102;28;20060;-59
2022/08/17 09:15:11;;;;;;;1.92;1.83;;;;;;;20.43;62.70;96519.09;10487616;28;20056;-58
2022/08/17 09:21:02;;;;;;;2.38;2.15;;;;;;;20.43;62.68;96516.41;10455581;28;20085;-59
2022/08/17 09:26:24;;;;;;;2.22;2.10;;;;;;;20.44;62.75;96522.59;10461195;28;20045;-59
2022/08/17 09:31:54;;;;;;;2.00;1.83;;;;;;;20.44;62.81;96512.56;10468935;28;20045;-59
2022/08/17 09:37:34;;;;;;;1.90;1.80;;;;;;;20.47;62.80;96516.53;10455095;28;20060;-59
2022/08/17 09:42:58;;;;;;;2.00;1.90;;;;;;;20.45;62.70;96513.38;10442640;28;20424;-58
2022/08/17 09:48:27;;;;;;;2.55;2.10;;;;;;;20.45;62.74;96514.16;10448224;28;20064;-59
2022/08/17 09:53:47;;;;;;;2.30;2.10;;;;;;;20.47;62.98;96521.94;10455769;28;20404;-59
2022/08/17 09:59:06;;;;;;;1.90;1.80;;;;;;;20.46;62.73;96518.41;10449070;28;20052;-59
2022/08/17 10:04:34;;;;;;;2.10;1.95;;;;;;;20.47;62.78;96511.88;10456574;28;20056;-60
2022/08/17 10:09:59;;;;;;;2.47;2.28;;;;;;;20.48;62.80;96509.97;10475556;28;20048;-60
2022/08/17 10:15:45;;;;;;;1.92;1.83;;;;;;;20.47;62.80;96511.88;10452330;28;20064;-60
2022/08/17 10:26:45;;;;;;;2.00;1.90;;;;;;;20.48;62.77;96502.66;10461256;28;20412;-59
2022/08/17 10:32:08;;;;;;;2.30;2.10;;;;;;;20.49;62.96;96506.16;10465358;28;20083;-60
2022/08/17 10:37:45;;;;;;;1.92;1.83;;;;;;;20.49;62.98;96515.03;10445503;28;20048;-60
2022/08/17 10:43:40;;;;;;;2.20;2.00;;;;;;;20.49;63.00;96504.22;10510159;28;20043;-59
2022/08/17 10:49:19;;;;;;;1.90;1.80;;;;;;;20.48;62.91;96497.25;10451110;28;20463;-56
2022/08/17 10:54:46;;;;;;;2.00;1.90;;;;;;;20.49;62.92;96493.41;10497230;28;20053;-60
2022/08/17 11:00:14;;;;;;;1.85;1.75;;;;;;;20.50;62.84;96492.28;10470451;28;20041;-59
2022/08/17 11:05:49;;;;;;;2.00;1.90;;;;;;;20.50;63.00;96488.78;10481118;28;20091;-58
2022/08/17 11:11:18;;;;;;;2.00;1.90;;;;;;;20.50;62.92;96499.59;10483643;28;20052;-60
2022/08/17 11:16:38;;;;;;;1.90;1.80;;;;;;;20.51;62.87;96491.16;10471719;28;20057;-60
2022/08/17 11:22:20;;;;;;;1.80;1.70;;;;;;;20.51;62.96;96493.06;10476747;28;20053;-58
2022/08/17 11:27:41;;;;;;;1.92;1.80;;;;;;;20.52;63.06;96494.63;10451065;28;20052;-60
2022/08/17 11:33:41;;;;;;;1.88;1.77;;;;;;;20.50;63.03;96476.06;10450624;28;20052;-59
2022/08/17 11:39:23;;;;;;;1.77;1.63;;;;;;;20.53;62.92;96471.88;10444091;28;20053;-59
2022/08/17 11:44:50;;;;;;;1.77;1.67;;;;;;;20.51;62.99;96468.72;10463049;28;20568;-59
2022/08/17 11:56:04;;;;;;;1.90;1.80;;;;;;;20.52;62.93;96478.41;10473000;28;20048;-59
2022/08/17 12:01:25;;;;;;;1.80;1.70;;;;;;;20.53;63.07;96471.88;10442042;28;20045;-59
2022/08/17 12:06:51;;;;;;;1.90;1.70;;;;;;;20.52;63.05;96481.91;10458086;28;20436;-59
2022/08/17 12:12:20;;;;;;;1.90;1.80;;;;;;;20.54;62.99;96476.16;10449107;28;20045;-60
2022/08/17 12:17:39;;;;;;;1.60;1.50;;;;;;;20.53;63.08;96463.75;10443042;28;20061;-60
2022/08/17 12:23:25;;;;;;;1.60;1.50;;;;;;;20.54;63.03;96462.63;10455641;28;20107;-59
2022/08/17 12:28:52;;;;;;;1.75;1.65;;;;;;;20.54;63.04;96463.41;10464591;28;20369;-59
2022/08/17 12:34:18;;;;;;;1.70;1.60;;;;;;;20.57;62.97;96453.03;10484344;28;20052;-60
2022/08/17 12:39:37;;;;;;;1.67;1.58;;;;;;;20.57;63.09;96461.16;10483328;28;20044;-59
2022/08/17 12:44:57;;;;;;;1.70;1.60;;;;;;;20.58;63.08;96454.59;10471571;28;20103;-60
2022/08/17 12:50:18;;;;;;;2.45;1.75;;;;;;;20.56;63.14;96444.13;10472175;28;20067;-60
2022/08/17 12:55:37;;;;;;;1.52;1.42;;;;;;;20.56;63.14;96441.41;10484534;28;20114;-60
2022/08/17 13:01:04;;;;;;;1.75;1.65;;;;;;;20.55;63.03;96443.34;10470070;28;20495;-60
2022/08/17 13:06:28;;;;;;;1.60;1.50;;;;;;;20.57;63.14;96447.63;10482830;28;20052;-60
2022/08/17 13:11:53;;;;;;;1.80;1.70;;;;;;;20.56;63.11;96449.53;10451819;28;20057;-60
2022/08/17 13:17:25;;;;;;;1.60;1.50;;;;;;;20.57;63.11;96448.41;10476348;28;20049;-60
2022/08/17 13:22:52;;;;;;;1.65;1.55;;;;;;;20.57;63.13;96440.28;10470184;28;20416;-60
2022/08/17 13:28:17;;;;;;;1.60;1.50;;;;;;;20.59;63.17;96434.56;10458537;28;20065;-60
2022/08/17 13:33:37;;;;;;;1.38;1.27;;;;;;;20.58;63.16;96428.34;10476560;28;20106;-59
2022/08/17 13:39:25;;;;;;;1.40;1.30;;;;;;;20.58;63.14;96425.66;10470840;28;20496;-60
2022/08/17 13:44:45;;;;;;;1.70;1.60;;;;;;;20.59;63.20;96421.84;10493353;28;20048;-60
2022/08/17 13:50:05;;;;;;;1.23;1.23;;;;;;;20.59;63.10;96431.84;10463166;28;20295;-58
2022/08/17 13:55:27;;;;;;;1.58;1.48;;;;;;;20.60;63.14;96433.44;10467473;28;20408;-60
2022/08/17 14:00:47;;;;;;;1.77;1.67;;;;;;;20.60;63.12;96445.06;10461674;28;20083;-59
2022/08/17 14:06:06;;;;;;;1.52;1.42;;;;;;;20.60;63.09;96447.78;10474650;28;20045;-59
2022/08/17 14:11:25;;;;;;;1.30;1.20;;;;;;;20.61;63.18;96454.75;10466179;28;20045;-59
2022/08/17 14:16:44;;;;;;;1.48;1.38;;;;;;;20.60;63.18;96445.06;10461454;28;20049;-60
2022/08/17 14:22:07;;;;;;;1.40;1.30;;;;;;;20.61;63.16;96457.47;10469140;28;20412;-60
2022/08/17 14:27:30;;;;;;;1.60;1.50;;;;;;;20.61;63.18;96452.06;10450330;28;20053;-59
2022/08/17 14:32:50;;;;;;;1.40;1.30;;;;;;;20.61;63.14;96460.16;10466474;28;20052;-60
2022/08/17 14:38:10;;;;;;;1.55;1.30;;;;;;;20.62;63.20;96447.41;10501218;28;20372;-60
2022/08/17 14:43:33;;;;;;;1.27;1.25;;;;;;;20.63;63.28;96421.94;10461783;28;20099;-57
2022/08/17 14:48:52;;;;;;;1.42;1.33;;;;;;;20.64;63.30;96418.91;10452287;28;20033;-60
2022/08/17 14:54:13;;;;;;;1.50;1.40;;;;;;;20.63;63.44;96417.31;10467895;28;20041;-60
2022/08/17 14:59:32;;;;;;;1.38;1.27;;;;;;;20.64;63.16;96429.72;10465908;28;20048;-60
2022/08/17 15:04:51;;;;;;;1.27;1.20;;;;;;;20.65;63.24;96441.34;10475443;28;20056;-60
2022/08/17 15:10:12;;;;;;;1.42;1.33;;;;;;;20.65;63.24;96447.53;10492530;28;20049;-60
2022/08/17 15:15:31;;;;;;;1.50;1.40;;;;;;;20.65;63.21;96438.63;10494117;28;20061;-59
2022/08/17 15:20:51;;;;;;;1.48;1.38;;;;;;;20.66;63.17;96437.50;10483169;28;20045;-59
2022/08/17 15:26:10;;;;;;;1.50;1.40;;;;;;;20.66;63.32;96427.47;10473864;28;20778;-59
2022/08/17 15:31:30;;;;;;;1.27;1.27;;;;;;;20.66;63.31;96413.94;10458312;28;20048;-60
2022/08/17 15:36:50;;;;;;;14.30;2.60;;;;;;;20.67;63.40;96403.91;10465886;28;20739;-60
2022/08/17 15:42:09;;;;;;;1.40;1.30;;;;;;;20.66;63.28;96400.41;10442327;28;20045;-60
2022/08/17 15:47:29;;;;;;;1.48;1.38;;;;;;;20.68;63.30;96398.16;10458308;28;20056;-59
2022/08/17 15:52:54;;;;;;;1.30;1.20;;;;;;;20.68;63.17;96397.34;10457826;28;20049;-56
2022/08/17 15:58:13;;;;;;;1.48;1.38;;;;;;;20.69;63.30;96404.34;10457797;28;20052;-60
2022/08/17 16:03:33;;;;;;;1.05;1.05;;;;;;;20.69;63.38;96397.00;10455169;28;20059;-59
2022/08/17 16:08:56;;;;;;;1.40;1.30;;;;;;;20.68;63.39;96400.84;10457449;28;20060;-59
2022/08/17 16:14:16;;;;;;;1.52;1.42;;;;;;;20.69;63.37;96397.00;10473869;28;20044;-59
2022/08/17 16:19:37;;;;;;;1.10;1.10;;;;;;;20.70;63.30;96400.50;10510872;28;20404;-60
2022/08/17 16:24:57;;;;;;;1.40;1.30;;;;;;;20.71;63.35;96393.97;10488467;28;20062;-59
2022/08/17 16:30:16;;;;;;;1.38;1.27;;;;;;;20.70;63.26;96390.47;10508390;28;20051;-60
2022/08/17 16:35:36;;;;;;;1.20;1.20;;;;;;;20.66;61.23;96388.78;10479130;28;20113;-60
2022/08/17 16:40:55;;;;;;;1.33;1.23;;;;;;;20.57;58.92;96388.09;10491972;28;20392;-61
2022/08/17 16:46:15;;;;;;;1.00;1.00;;;;;;;20.45;56.81;96383.50;10494815;28;20046;-60
2022/08/17 16:51:34;;;;;;;1.15;1.15;;;;;;;20.35;55.46;96390.16;10491993;28;20049;-59
2022/08/17 16:56:54;;;;;;;0.98;0.98;;;;;;;20.30;55.34;96390.38;10483165;28;20056;-60
2022/08/17 17:02:14;;;;;;;1.10;1.10;;;;;;;20.29;55.94;96388.81;10482620;28;20488;-60
2022/08/17 17:07:49;;;;;;;1.15;1.08;;;;;;;20.30;56.67;96395.78;10471797;28;20481;-59
2022/08/17 17:13:31;;;;;;;1.10;1.10;;;;;;;20.30;57.25;96388.44;10440525;28;20053;-60
2022/08/17 17:19:11;;;;;;;1.27;1.17;;;;;;;20.31;57.85;96395.44;10464904;28;20103;-59
2022/08/17 17:24:38;;;;;;;1.10;1.10;;;;;;;20.31;58.22;96395.44;10454332;28;20057;-59
2022/08/17 17:30:14;;;;;;;1.20;1.10;;;;;;;20.32;58.45;96396.22;10464951;28;20057;-60
2022/08/17 17:35:50;;;;;;;1.08;1.08;;;;;;;20.32;58.63;96412.44;10458108;28;20049;-59
2022/08/17 17:41:21;;;;;;;1.10;1.10;;;;;;;20.31;58.77;96417.09;10454772;28;20041;-60
2022/08/17 17:46:48;;;;;;;1.30;1.20;;;;;;;20.31;59.06;96425.19;10490704;28;20033;-59
2022/08/17 17:52:15;;;;;;;1.45;1.35;;;;;;;20.35;59.57;96428.81;10474783;28;20051;-59
2022/08/17 17:57:44;;;;;;;1.38;1.20;;;;;;;20.39;59.83;96425.44;10467207;28;20403;-59
2022/08/17 18:03:16;;;;;;;1.40;1.30;;;;;;;20.43;59.92;96427.13;10495973;28;20056;-59
2022/08/17 18:08:53;;;;;;;2.50;1.60;;;;;;;20.45;60.00;96426.78;10513739;28;20050;-59
2022/08/17 18:15:01;;;;;;;1.40;1.30;;;;;;;20.47;60.15;96432.63;10483988;28;20079;-59
2022/08/17 18:20:22;;;;;;;1.65;1.40;;;;;;;20.49;60.26;96433.09;10482704;28;20055;-59
2022/08/17 18:25:43;;;;;;;1.50;1.40;;;;;;;20.49;60.20;96439.28;10496916;28;20045;-59
2022/08/17 18:31:18;;;;;;;1.75;1.30;;;;;;;20.51;60.22;96434.31;10498273;28;20392;-60
2022/08/17 18:36:38;;;;;;;1.30;1.23;;;;;;;20.53;60.39;96428.56;10456984;28;20075;-60
2022/08/17 18:42:02;;;;;;;1.30;1.20;;;;;;;20.53;60.51;96429.34;10445965;28;20049;-59
2022/08/17 18:47:22;;;;;;;1.67;1.40;;;;;;;20.54;60.57;96436.38;10450805;28;20566;-60
2022/08/17 18:52:42;;;;;;;2.60;1.38;;;;;;;20.55;60.67;96442.56;10465285;28;20053;-61
2022/08/17 18:58:23;;;;;;;3.55;1.27;;;;;;;20.56;60.77;96446.81;10490790;28;20044;-57
2022/08/17 19:03:45;;;;;;;4.03;1.40;;;;;;;20.56;60.88;96449.53;10462065;28;20068;-59
2022/08/17 19:09:29;;;;;;;1.88;1.27;;;;;;;20.56;61.04;96446.81;10496142;28;20106;-58
2022/08/17 19:14:50;;;;;;;2.65;1.40;;;;;;;20.56;61.35;96444.13;10449879;28;20053;-57
2022/08/17 19:20:20;;;;;;;1.90;1.30;;;;;;;20.56;61.16;96438.72;10458726;28;20044;-60
2022/08/17 19:25:52;;;;;;;2.13;1.30;;;;;;;20.56;61.20;96427.88;10445448;28;20061;-59
2022/08/17 19:31:20;;;;;;;1.65;1.38;;;;;;;20.57;61.33;96424.06;10463487;28;20052;-59
2022/08/17 19:36:49;;;;;;;1.38;1.27;;;;;;;20.58;61.25;96427.53;10472132;28;20095;-59
2022/08/17 19:42:16;;;;;;;1.35;1.25;;;;;;;20.57;61.28;96429.47;10443096;28;20053;-60
2022/08/17 19:47:42;;;;;;;2.05;1.52;;;;;;;20.57;61.43;96413.22;10476365;28;20068;-59
2022/08/17 19:53:24;;;;;;;1.58;1.48;;;;;;;20.58;61.49;96414.00;10497656;28;20040;-58
2022/08/17 19:58:56;;;;;;;1.60;1.50;;;;;;;20.58;61.52;96412.13;10459575;28;20064;-59
2022/08/17 20:04:19;;;;;;;3.88;1.40;;;;;;;20.57;61.46;96402.41;10464861;28;20053;-60
2022/08/17 20:10:02;;;;;;;1.17;1.13;;;;;;;20.59;61.54;96399.38;10456814;28;20053;-60
2022/08/17 20:15:28;;;;;;;1.38;1.27;;;;;;;20.59;61.66;96411.00;10446177;28;20110;-59
2022/08/17 20:20:58;;;;;;;1.55;1.45;;;;;;;20.59;61.60;96394.78;10441241;28;20125;-59
2022/08/17 20:26:50;;;;;;;1.52;1.42;;;;;;;20.59;61.72;96393.97;10459174;28;20041;-59
2022/08/17 20:32:22;;;;;;;2.85;1.73;;;;;;;20.59;61.66;96405.59;10473559;28;20048;-60
2022/08/17 20:37:50;;;;;;;1.73;1.60;;;;;;;20.59;61.62;96393.97;10460096;28;20060;-60
2022/08/17 20:43:28;;;;;;;1.60;1.50;;;;;;;20.59;61.76;96389.34;10479567;28;20049;-60
2022/08/17 20:48:57;;;;;;;3.55;1.75;;;;;;;20.60;61.69;96395.56;10457377;28;20049;-61
2022/08/17 20:54:17;;;;;;;1.70;1.60;;;;;;;20.60;61.72;96400.97;10468699;28;20041;-61
2022/08/17 20:59:42;;;;;;;1.70;1.60;;;;;;;20.60;61.78;96407.19;10454370;28;20052;-59
2022/08/17 21:05:26;;;;;;;1.55;1.45;;;;;;;20.60;61.73;96400.97;10509185;28;20055;-61
2022/08/17 21:10:45;;;;;;;1.80;1.67;;;;;;;20.61;61.69;96413.38;10503446;28;20045;-61
2022/08/17 21:16:40;;;;;;;1.90;1.60;;;;;;;20.61;61.90;96424.19;10523207;28;20120;-61
2022/08/17 21:22:20;;;;;;;1.80;1.70;;;;;;;20.61;61.83;96432.31;10474812;28;20060;-61
2022/08/17 21:28:05;;;;;;;1.88;1.70;;;;;;;20.60;61.83;96439.66;10485955;28;20052;-61
2022/08/17 21:33:31;;;;;;;1.60;1.50;;;;;;;20.60;61.78;96439.66;10502153;28;20094;-61
2022/08/17 21:38:55;;;;;;;2.50;1.70;;;;;;;20.60;61.71;96449.69;10495528;28;20045;-60
2022/08/17 21:44:17;;;;;;;2.00;1.80;;;;;;;20.61;61.85;96456.69;10529393;28;20040;-61
2022/08/17 21:49:37;;;;;;;2.05;1.65;;;;;;;20.61;61.74;96462.88;10484025;28;20500;-61
2022/08/17 21:54:57;;;;;;;1.90;1.77;;;;;;;20.61;61.78;96452.06;10506742;28;20518;-60
2022/08/17 22:00:23;;;;;;;1.60;1.50;;;;;;;20.62;61.75;96463.66;10495497;28;20052;-60
2022/08/17 22:05:45;;;;;;;1.88;1.77;;;;;;;20.63;61.73;96465.25;10537819;28;20495;-59
2022/08/17 22:11:05;;;;;;;3.03;1.77;;;;;;;20.63;61.83;96454.44;10512762;28;20048;-61
2022/08/17 22:16:24;;;;;;;1.83;1.73;;;;;;;20.62;61.86;96456.34;10503432;28;20053;-60
2022/08/17 22:21:43;;;;;;;2.20;2.00;;;;;;;20.62;61.94;96442.81;10502532;28;20500;-60
2022/08/17 22:27:09;;;;;;;2.28;1.90;;;;;;;20.62;61.86;96431.19;10495521;28;20060;-60
2022/08/17 22:32:38;;;;;;;1.75;1.65;;;;;;;20.62;61.82;96428.47;10494971;28;20056;-60
2022/08/17 22:38:18;;;;;;;1.60;1.50;;;;;;;20.63;61.80;96422.72;10520463;28;20058;-60
2022/08/17 22:43:37;;;;;;;1.70;1.60;;;;;;;20.62;61.80;96404.13;10520771;28;20051;-59
2022/08/17 22:48:58;;;;;;;23.33;2.70;;;;;;;20.63;61.98;96417.31;10502644;28;20404;-61
2022/08/17 23:00:33;;;;;;;1.80;1.70;;;;;;;20.62;62.01;96410.34;10318219;28;20069;-61
2022/08/17 23:06:06;;;;;;;1.80;1.67;;;;;;;20.62;62.04;96404.94;10493651;28;20443;-60
2022/08/17 23:11:28;;;;;;;1.60;1.50;;;;;;;20.62;61.92;96398.69;10540443;28;20044;-61
2022/08/17 23:16:51;;;;;;;1.80;1.70;;;;;;;20.62;61.88;96404.94;10500435;28;20098;-60
2022/08/17 23:22:11;;;;;;;1.67;1.52;;;;;;;20.62;61.94;96402.22;10524035;28;20518;-61
2022/08/17 23:27:30;;;;;;;1.70;1.60;;;;;;;20.62;61.92;96407.63;10504307;28;20064;-61
2022/08/17 23:32:51;;;;;;;2.40;1.60;;;;;;;20.63;61.98;96411.13;10526714;28;20043;-60
2022/08/17 23:38:11;;;;;;;1.58;1.48;;;;;;;20.62;61.98;96410.34;10513529;28;20063;-61
2022/08/17 23:43:31;;;;;;;1.95;1.85;;;;;;;20.63;62.01;96411.13;10526483;28;20044;-61
2022/08/17 23:48:52;;;;;;;1.75;1.65;;;;;;;20.62;61.94;96396.81;10487515;28;20492;-61
2022/08/17 23:54:22;;;;;;;1.83;1.50;;;;;;;20.62;61.87;96404.94;10503444;28;20063;-61
2022/08/17 23:59:42;;;;;;;1.38;1.27;;;;;;;20.63;62.01;96401.06;10498430;28;20499;-61
